createdAt,value
2019-01-19T00:02:37.410Z,-3.10
2019-01-19T00:05:53.690Z,-3.20
2019-01-19T00:08:35.795Z,-3.20
2019-01-19T00:11:48.422Z,-3.10
2019-01-19T00:14:29.699Z,-3.20
2019-01-19T00:17:37.831Z,-3.30
2019-01-19T00:20:47.321Z,-3.40
2019-01-19T00:24:13.015Z,-3.40
2019-01-19T00:26:56.138Z,-3.50
2019-01-19T00:29:59.297Z,-3.60
2019-01-19T00:33:07.160Z,-3.60
2019-01-19T00:36:23.547Z,-3.50
2019-01-19T00:39:46.802Z,-3.30
2019-01-19T00:42:57.072Z,-3.30
2019-01-19T00:46:03.010Z,-3.50
2019-01-19T00:49:09.571Z,-3.50
2019-01-19T00:52:03.361Z,-3.60
2019-01-19T00:54:40.110Z,-3.70
2019-01-19T00:57:51.750Z,-3.80
2019-01-19T01:00:52.633Z,-3.80
2019-01-19T01:03:57.786Z,-3.80
2019-01-19T01:06:53.038Z,-3.80
2019-01-19T01:10:15.654Z,-3.90
2019-01-19T01:13:19.979Z,-3.90
2019-01-19T01:16:31.146Z,-3.90
2019-01-19T01:19:24.912Z,-4.00
2019-01-19T01:22:20.842Z,-3.90
2019-01-19T01:25:30.982Z,-3.70
2019-01-19T01:28:29.296Z,-3.70
2019-01-19T01:31:22.943Z,-3.70
2019-01-19T01:34:49.023Z,-3.70
2019-01-19T01:38:05.926Z,-3.80
2019-01-19T01:41:31.878Z,-3.90
2019-01-19T01:44:19.527Z,-3.90
2019-01-19T01:47:24.284Z,-3.90
2019-01-19T01:50:12.857Z,-3.90
2019-01-19T01:53:11.162Z,-4.00
2019-01-19T01:55:51.189Z,-4.00
2019-01-19T01:59:01.436Z,-4.10
2019-01-19T02:02:25.272Z,-4.10
2019-01-19T02:05:32.168Z,-4.10
2019-01-19T02:08:36.587Z,-4.00
2019-01-19T02:11:32.133Z,-4.10
2019-01-19T02:14:14.438Z,-3.90
2019-01-19T02:17:46.976Z,-4.00
2019-01-19T02:20:40.766Z,-4.10
2019-01-19T02:23:37.801Z,-4.10
2019-01-19T02:26:38.371Z,-4.10
2019-01-19T02:29:52.378Z,-4.10
2019-01-19T02:32:50.082Z,-4.10
2019-01-19T02:35:48.293Z,-4.10
2019-01-19T02:38:48.497Z,-4.00
2019-01-19T02:41:45.022Z,-3.90
2019-01-19T02:44:56.614Z,-3.90
2019-01-19T02:47:43.209Z,-3.90
2019-01-19T02:50:45.894Z,-3.60
2019-01-19T02:54:06.089Z,-3.60
2019-01-19T02:57:13.367Z,-3.70
2019-01-19T03:00:01.942Z,-3.80
2019-01-19T03:03:20.534Z,-3.70
2019-01-19T03:06:31.956Z,-3.40
2019-01-19T03:09:31.096Z,-3.50
2019-01-19T03:12:38.434Z,-3.40
2019-01-19T03:15:41.873Z,-3.40
2019-01-19T03:18:41.709Z,-3.50
2019-01-19T03:21:50.172Z,-3.60
2019-01-19T03:25:04.523Z,-3.70
2019-01-19T03:28:06.408Z,-3.60
2019-01-19T03:31:11.199Z,-3.60
2019-01-19T03:34:03.072Z,-3.60
2019-01-19T03:37:16.894Z,-3.60
2019-01-19T03:40:42.054Z,-3.60
2019-01-19T03:43:58.743Z,-3.60
2019-01-19T03:47:10.257Z,-3.60
2019-01-19T03:50:08.974Z,-3.60
2019-01-19T03:53:03.594Z,-3.60
2019-01-19T03:56:30.058Z,-3.70
2019-01-19T03:59:20.558Z,-3.40
2019-01-19T04:02:39.973Z,-3.40
2019-01-19T04:05:42.198Z,-3.50
2019-01-19T04:08:52.073Z,-3.60
2019-01-19T04:12:04.358Z,-3.60
2019-01-19T04:15:37.300Z,-3.50
2019-01-19T04:18:41.592Z,-3.50
2019-01-19T04:22:01.927Z,-3.20
2019-01-19T04:24:57.433Z,-3.30
2019-01-19T04:27:27.765Z,-3.40
2019-01-19T04:29:58.163Z,-3.40
2019-01-19T04:32:28.550Z,-3.40
2019-01-19T04:34:58.931Z,-3.40
2019-01-19T04:37:29.313Z,-3.40
2019-01-19T04:39:59.738Z,-3.40
2019-01-19T04:42:30.394Z,-3.50
2019-01-19T04:45:00.706Z,-3.60
2019-01-19T04:47:31.080Z,-3.60
2019-01-19T04:50:01.495Z,-3.60
2019-01-19T04:52:31.874Z,-3.70
2019-01-19T04:55:02.493Z,-3.80
2019-01-19T04:57:32.930Z,-3.80
2019-01-19T05:00:03.332Z,-3.80
2019-01-19T05:02:33.818Z,-3.80
2019-01-19T05:05:04.513Z,-3.90
2019-01-19T05:07:34.922Z,-3.90
2019-01-19T05:10:06.153Z,-3.90
2019-01-19T05:12:36.496Z,-3.90
2019-01-19T05:15:10.169Z,-4.00
2019-01-19T05:17:40.736Z,-4.00
2019-01-19T05:20:11.844Z,-4.00
2019-01-19T05:22:43.271Z,-4.00
2019-01-19T05:25:14.084Z,-4.00
2019-01-19T05:27:44.412Z,-4.10
2019-01-19T05:30:17.049Z,-4.10
2019-01-19T05:32:47.525Z,-4.10
2019-01-19T05:35:19.319Z,-4.10
2019-01-19T05:37:49.740Z,-4.10
2019-01-19T05:40:20.273Z,-4.00
2019-01-19T05:42:50.927Z,-4.00
2019-01-19T05:45:21.335Z,-3.80
2019-01-19T05:47:51.764Z,-3.90
2019-01-19T05:50:23.944Z,-4.00
2019-01-19T05:52:54.283Z,-4.00
2019-01-19T05:55:24.587Z,-4.00
2019-01-19T05:57:54.925Z,-3.90
2019-01-19T06:00:35.493Z,-3.80
2019-01-19T06:03:07.681Z,-3.70
2019-01-19T06:05:39.759Z,-3.60
2019-01-19T06:08:10.120Z,-3.70
2019-01-19T06:10:40.526Z,-3.70
2019-01-19T06:13:10.853Z,-3.80
2019-01-19T06:15:41.261Z,-3.80
2019-01-19T06:18:11.669Z,-3.80
2019-01-19T06:20:42.069Z,-3.80
2019-01-19T06:23:12.440Z,-3.80
2019-01-19T06:25:42.755Z,-3.90
2019-01-19T06:28:13.073Z,-3.90
2019-01-19T06:30:43.433Z,-3.90
2019-01-19T06:33:13.731Z,-3.90
2019-01-19T06:35:44.150Z,-3.90
2019-01-19T06:38:14.486Z,-3.80
2019-01-19T06:40:44.860Z,-3.70
2019-01-19T06:43:15.193Z,-3.60
2019-01-19T06:45:45.551Z,-3.40
2019-01-19T06:48:15.915Z,-3.50
2019-01-19T06:50:46.284Z,-3.50
2019-01-19T06:53:16.666Z,-3.40
2019-01-19T06:55:47.010Z,-3.40
2019-01-19T06:58:17.376Z,-3.50
2019-01-19T07:00:47.680Z,-3.40
2019-01-19T07:03:17.995Z,-3.40
2019-01-19T07:05:48.346Z,-3.40
2019-01-19T07:08:20.251Z,-3.30
2019-01-19T07:10:50.909Z,-3.20
2019-01-19T07:13:21.284Z,-3.40
2019-01-19T07:15:51.620Z,-3.50
2019-01-19T07:18:21.950Z,-3.50
2019-01-19T07:20:52.294Z,-3.50
2019-01-19T07:23:22.661Z,-3.50
2019-01-19T07:25:53.188Z,-3.50
2019-01-19T07:28:23.650Z,-3.40
2019-01-19T07:30:54.096Z,-3.50
2019-01-19T07:33:24.454Z,-3.40
2019-01-19T07:35:54.963Z,-3.40
2019-01-19T07:38:25.579Z,-3.40
2019-01-19T07:40:55.914Z,-3.20
2019-01-19T07:43:26.686Z,-3.20
2019-01-19T07:45:57.321Z,-3.10
2019-01-19T07:48:27.741Z,-3.10
2019-01-19T07:50:58.233Z,-3.10
2019-01-19T07:53:28.756Z,-3.10
2019-01-19T07:55:59.103Z,-3.10
2019-01-19T07:58:29.547Z,-3.10
2019-01-19T08:01:00.121Z,-3.00
2019-01-19T08:03:30.424Z,-3.00
2019-01-19T08:06:00.896Z,-2.90
2019-01-19T08:08:31.349Z,-2.90
2019-01-19T08:11:01.782Z,-2.80
2019-01-19T08:13:32.298Z,-2.80
2019-01-19T08:16:03.403Z,-2.70
2019-01-19T08:18:33.862Z,-2.60
2019-01-19T08:21:04.438Z,-2.50
2019-01-19T08:23:34.882Z,-2.30
2019-01-19T08:26:05.399Z,-2.20
2019-01-19T08:28:35.725Z,-2.10
2019-01-19T08:31:06.241Z,-2.00
2019-01-19T08:33:36.671Z,-2.00
2019-01-19T08:36:08.280Z,-1.90
2019-01-19T08:38:38.808Z,-1.80
2019-01-19T08:41:09.335Z,-1.70
2019-01-19T08:43:42.870Z,-1.50
2019-01-19T08:46:13.295Z,-1.40
2019-01-19T08:48:43.840Z,-1.20
2019-01-19T08:51:14.309Z,-1.20
2019-01-19T08:53:45.674Z,-1.10
2019-01-19T08:56:16.122Z,-1.10
2019-01-19T08:58:46.655Z,-1.00
2019-01-19T09:01:17.197Z,-0.80
2019-01-19T09:03:47.670Z,-0.80
2019-01-19T09:06:18.271Z,-0.70
2019-01-19T09:08:48.609Z,-0.60
2019-01-19T09:11:19.095Z,-0.50
2019-01-19T09:13:49.692Z,-0.40
2019-01-19T09:16:22.285Z,-0.30
2019-01-19T09:18:52.850Z,-0.10
2019-01-19T09:21:23.286Z,-0.10
2019-01-19T09:24:10.858Z,0.00
2019-01-19T09:26:41.226Z,0.10
2019-01-19T09:29:11.771Z,0.20
2019-01-19T09:31:42.145Z,0.10
2019-01-19T09:34:12.698Z,0.20
2019-01-19T09:36:43.019Z,0.30
2019-01-19T09:39:13.661Z,0.30
2019-01-19T09:41:44.007Z,0.20
2019-01-19T09:44:14.475Z,0.30
2019-01-19T09:46:44.991Z,0.30
2019-01-19T09:49:16.513Z,0.40
2019-01-19T09:51:46.951Z,0.30
2019-01-19T09:54:17.392Z,0.40
2019-01-19T09:56:47.824Z,0.50
2019-01-19T09:59:18.447Z,0.60
2019-01-19T10:01:48.852Z,0.80
2019-01-19T10:04:19.277Z,0.80
2019-01-19T10:06:49.737Z,0.80
2019-01-19T10:09:20.133Z,0.90
2019-01-19T10:11:50.538Z,0.90
2019-01-19T10:14:20.915Z,0.90
2019-01-19T10:16:51.419Z,0.90
2019-01-19T10:19:21.891Z,1.00
2019-01-19T10:21:52.385Z,1.20
2019-01-19T10:24:23.052Z,1.30
2019-01-19T10:26:53.438Z,1.40
2019-01-19T10:29:24.270Z,1.50
2019-01-19T10:31:54.676Z,1.50
2019-01-19T10:34:25.221Z,1.50
2019-01-19T10:36:55.585Z,1.50
2019-01-19T10:39:25.972Z,1.70
2019-01-19T10:41:56.402Z,1.70
2019-01-19T10:44:26.872Z,1.70
2019-01-19T10:47:01.041Z,1.80
2019-01-19T10:49:31.687Z,1.80
2019-01-19T10:52:02.241Z,1.90
2019-01-19T10:54:32.737Z,2.00
2019-01-19T10:57:03.172Z,2.10
2019-01-19T10:59:33.850Z,2.00
2019-01-19T11:02:04.963Z,2.10
2019-01-19T11:04:35.372Z,2.10
2019-01-19T11:07:05.930Z,2.10
2019-01-19T11:09:36.476Z,2.10
2019-01-19T11:12:07.000Z,2.10
2019-01-19T11:14:37.337Z,2.10
2019-01-19T11:17:07.806Z,2.20
2019-01-19T11:19:38.201Z,2.30
2019-01-19T11:22:08.602Z,2.20
2019-01-19T11:24:39.128Z,2.20
2019-01-19T11:27:09.715Z,2.30
2019-01-19T11:29:41.463Z,2.30
2019-01-19T11:32:15.798Z,2.20
2019-01-19T11:34:46.471Z,2.20
2019-01-19T11:37:17.278Z,2.30
2019-01-19T11:39:47.888Z,2.30
2019-01-19T11:42:18.637Z,2.40
2019-01-19T11:44:51.372Z,2.30
2019-01-19T11:47:21.691Z,2.50
2019-01-19T11:49:53.010Z,2.50
2019-01-19T11:52:23.631Z,2.60
2019-01-19T11:55:00.946Z,2.60
2019-01-19T11:57:31.393Z,2.60
2019-01-19T12:00:03.263Z,2.60
2019-01-19T12:02:37.010Z,2.70
2019-01-19T12:05:06.537Z,2.60
2019-01-19T12:07:37.067Z,2.60
2019-01-19T12:10:09.978Z,2.60
2019-01-19T12:12:40.423Z,2.60
2019-01-19T12:15:11.107Z,2.70
2019-01-19T12:17:41.651Z,2.70
2019-01-19T12:20:23.561Z,2.70
2019-01-19T12:22:54.482Z,2.80
2019-01-19T12:25:25.481Z,2.70
2019-01-19T12:27:56.059Z,2.70
2019-01-19T12:30:28.601Z,2.70
2019-01-19T12:32:59.062Z,2.70
2019-01-19T12:35:30.450Z,2.60
2019-01-19T12:38:01.439Z,2.70
2019-01-19T12:40:31.984Z,2.70
2019-01-19T12:43:05.819Z,2.70
2019-01-19T12:45:39.697Z,2.80
2019-01-19T12:48:11.743Z,2.90
2019-01-19T12:50:42.634Z,3.00
2019-01-19T12:53:13.183Z,3.00
2019-01-19T12:55:43.681Z,3.10
2019-01-19T12:58:14.136Z,3.20
2019-01-19T13:00:44.679Z,3.30
2019-01-19T13:03:15.543Z,3.40
2019-01-19T13:06:07.807Z,3.40
2019-01-19T13:08:39.438Z,3.30
2019-01-19T13:11:37.473Z,3.40
2019-01-19T13:14:08.088Z,3.40
2019-01-19T13:17:28.086Z,3.30
2019-01-19T13:20:48.390Z,3.30
2019-01-19T13:24:12.179Z,3.20
2019-01-19T13:27:23.481Z,3.10
2019-01-19T13:30:37.787Z,3.20
2019-01-19T13:33:31.651Z,3.10
2019-01-19T13:36:37.893Z,3.00
2019-01-19T13:39:41.084Z,3.00
2019-01-19T13:42:44.957Z,3.00
2019-01-19T13:45:35.352Z,2.80
2019-01-19T13:48:30.760Z,2.90
2019-01-19T13:51:17.388Z,2.70
2019-01-19T13:54:40.022Z,2.80
2019-01-19T13:57:35.478Z,2.80
2019-01-19T14:01:08.938Z,2.60
2019-01-19T14:04:20.152Z,2.50
2019-01-19T14:07:25.952Z,2.50
2019-01-19T14:10:26.983Z,2.30
2019-01-19T14:13:16.650Z,2.20
2019-01-19T14:16:12.172Z,2.10
2019-01-19T14:19:32.417Z,2.00
2019-01-19T14:22:38.357Z,1.90
2019-01-19T14:25:46.390Z,1.80
2019-01-19T14:29:18.828Z,1.90
2019-01-19T14:32:25.759Z,1.70
2019-01-19T14:35:40.834Z,1.80
2019-01-19T14:38:40.075Z,1.60
2019-01-19T14:41:46.134Z,1.60
2019-01-19T14:44:52.486Z,1.50
2019-01-19T14:47:37.923Z,1.50
2019-01-19T14:50:27.043Z,1.40
2019-01-19T14:53:13.198Z,1.20
2019-01-19T14:56:32.657Z,1.10
2019-01-19T14:59:20.534Z,1.00
2019-01-19T15:02:32.242Z,0.90
2019-01-19T15:05:37.078Z,0.90
2019-01-19T15:08:36.414Z,0.80
2019-01-19T15:11:53.760Z,0.60
2019-01-19T15:14:38.983Z,0.40
2019-01-19T15:17:55.812Z,0.30
2019-01-19T15:20:46.091Z,0.20
2019-01-19T15:23:58.139Z,0.20
2019-01-19T15:27:22.088Z,0.00
2019-01-19T15:30:42.012Z,-0.10
2019-01-19T15:33:48.468Z,-0.20
2019-01-19T15:36:43.406Z,-0.40
2019-01-19T15:39:52.754Z,-0.50
2019-01-19T15:42:56.331Z,-0.60
2019-01-19T15:46:10.864Z,-0.70
2019-01-19T15:49:20.798Z,-0.80
2019-01-19T15:52:29.341Z,-0.90
2019-01-19T15:55:35.161Z,-1.00
2019-01-19T15:58:49.193Z,-1.00
2019-01-19T16:02:05.449Z,-1.10
2019-01-19T16:05:29.332Z,-1.10
2019-01-19T16:08:31.703Z,-1.50
2019-01-19T16:11:51.994Z,-1.80
2019-01-19T16:15:03.263Z,-1.90
2019-01-19T16:18:25.794Z,-2.10
2019-01-19T16:21:16.520Z,-2.20
2019-01-19T16:24:20.597Z,-2.20
2019-01-19T16:27:25.080Z,-2.20
2019-01-19T16:30:45.810Z,-2.30
2019-01-19T16:33:42.186Z,-2.30
2019-01-19T16:36:39.761Z,-2.40
2019-01-19T16:39:47.110Z,-2.10
2019-01-19T16:42:50.353Z,-2.10
2019-01-19T16:45:38.326Z,-2.00
2019-01-19T16:48:42.696Z,-2.00
2019-01-19T16:52:03.698Z,-2.10
2019-01-19T16:55:00.240Z,-2.00
2019-01-19T16:58:08.065Z,-1.80
2019-01-19T17:01:03.369Z,-1.70
2019-01-19T17:03:59.819Z,-1.80
2019-01-19T17:07:00.928Z,-2.20
2019-01-19T17:10:01.025Z,-2.40
2019-01-19T17:12:48.701Z,-2.50
2019-01-19T17:15:59.252Z,-2.70
2019-01-19T17:19:32.184Z,-2.60
2019-01-19T17:22:31.025Z,-2.70
2019-01-19T17:25:39.158Z,-2.60
2019-01-19T17:28:49.175Z,-2.80
2019-01-19T17:32:02.585Z,-2.90
2019-01-19T17:34:49.826Z,-2.90
2019-01-19T17:37:38.180Z,-3.10
2019-01-19T17:40:56.030Z,-3.10
2019-01-19T17:44:07.021Z,-3.20
2019-01-19T17:47:11.755Z,-3.20
2019-01-19T17:50:21.550Z,-3.20
2019-01-19T17:53:48.430Z,-3.20
2019-01-19T17:57:01.703Z,-3.30
2019-01-19T18:00:13.951Z,-3.30
2019-01-19T18:02:52.806Z,-3.30
2019-01-19T18:05:46.562Z,-3.30
2019-01-19T18:09:07.165Z,-3.40
2019-01-19T18:12:19.505Z,-3.50
2019-01-19T18:15:46.520Z,-3.60
2019-01-19T18:18:36.761Z,-3.60
2019-01-19T18:21:42.380Z,-3.80
2019-01-19T18:24:42.381Z,-3.90
2019-01-19T18:27:48.098Z,-3.80
2019-01-19T18:30:51.346Z,-3.70
2019-01-19T18:33:53.427Z,-3.70
2019-01-19T18:37:11.486Z,-3.80
2019-01-19T18:40:35.888Z,-3.90
2019-01-19T18:43:44.840Z,-3.80
2019-01-19T18:46:52.540Z,-4.00
2019-01-19T18:50:19.186Z,-4.10
2019-01-19T18:53:16.482Z,-4.00
2019-01-19T18:56:19.179Z,-4.10
2019-01-19T18:59:11.645Z,-4.20
2019-01-19T19:02:23.573Z,-4.10
2019-01-19T19:05:08.730Z,-4.00
2019-01-19T19:08:29.737Z,-4.00
2019-01-19T19:11:53.237Z,-4.20
2019-01-19T19:14:48.816Z,-4.00
2019-01-19T19:17:40.981Z,-4.00
2019-01-19T19:21:10.772Z,-4.10
2019-01-19T19:24:07.412Z,-3.90
2019-01-19T19:27:06.224Z,-3.80
2019-01-19T19:30:13.400Z,-3.90
2019-01-19T19:33:31.701Z,-4.00
2019-01-19T19:36:40.286Z,-4.20
2019-01-19T19:39:24.487Z,-4.10
2019-01-19T19:42:26.962Z,-3.90
2019-01-19T19:45:38.251Z,-3.60
2019-01-19T19:48:27.347Z,-3.60
2019-01-19T19:51:41.805Z,-3.70
2019-01-19T19:54:12.613Z,-4.00
2019-01-19T19:56:41.436Z,-4.10
2019-01-19T19:59:12.019Z,-4.20
2019-01-19T20:01:42.670Z,-4.30
2019-01-19T20:04:13.302Z,-4.50
2019-01-19T20:06:44.162Z,-4.60
2019-01-19T20:09:16.426Z,-4.60
2019-01-19T20:11:47.291Z,-4.70
2019-01-19T20:14:20.360Z,-4.60
2019-01-19T20:16:52.925Z,-4.60
2019-01-19T20:19:23.557Z,-4.70
2019-01-19T20:21:54.190Z,-4.80
2019-01-19T20:24:24.652Z,-4.90
2019-01-19T20:26:55.333Z,-4.90
2019-01-19T20:29:26.086Z,-5.00
2019-01-19T20:31:56.793Z,-5.10
2019-01-19T20:34:27.570Z,-5.20
2019-01-19T20:36:58.077Z,-5.20
2019-01-19T20:39:28.831Z,-5.30
2019-01-19T20:41:59.863Z,-5.30
2019-01-19T20:44:30.517Z,-5.30
2019-01-19T20:47:01.076Z,-5.20
2019-01-19T20:49:31.596Z,-5.20
2019-01-19T20:52:02.173Z,-5.30
2019-01-19T20:54:32.696Z,-5.20
2019-01-19T20:57:04.391Z,-5.30
2019-01-19T20:59:34.997Z,-5.40
2019-01-19T21:02:05.943Z,-5.40
2019-01-19T21:04:36.528Z,-5.40
2019-01-19T21:07:07.076Z,-5.40
2019-01-19T21:09:37.871Z,-5.50
2019-01-19T21:12:08.422Z,-5.50
2019-01-19T21:14:39.093Z,-5.50
2019-01-19T21:17:09.722Z,-5.60
2019-01-19T21:20:03.335Z,-5.60
2019-01-19T21:22:41.257Z,-5.70
2019-01-19T21:25:32.101Z,-5.70
2019-01-19T21:28:10.473Z,-5.70
2019-01-19T21:30:54.858Z,-5.60
2019-01-19T21:37:08.136Z,-5.70
2019-01-19T21:39:38.971Z,-5.60
2019-01-19T21:42:09.539Z,-5.50
2019-01-19T21:44:40.174Z,-5.50
2019-01-19T21:47:11.258Z,-5.40
2019-01-19T21:49:41.707Z,-5.30
2019-01-19T21:52:12.256Z,-5.20
2019-01-19T21:54:42.902Z,-5.20
2019-01-19T21:57:13.511Z,-5.20
2019-01-19T21:59:44.179Z,-5.20
2019-01-19T22:02:14.778Z,-5.30
2019-01-19T22:04:45.187Z,-5.40
2019-01-19T22:07:15.957Z,-5.50
2019-01-19T22:09:46.607Z,-5.60
2019-01-19T22:12:30.362Z,-5.50
2019-01-19T22:15:01.069Z,-5.60
2019-01-19T22:17:39.260Z,-5.70
2019-01-19T22:20:06.353Z,-5.70
2019-01-19T22:22:38.037Z,-5.60
2019-01-19T22:25:09.212Z,-5.60
2019-01-19T22:27:42.587Z,-5.50
2019-01-19T22:30:15.294Z,-5.40
2019-01-19T22:32:46.503Z,-5.40
2019-01-19T22:35:17.324Z,-5.50
2019-01-19T22:37:48.871Z,-5.50
2019-01-19T22:40:19.926Z,-5.40
2019-01-19T22:42:51.108Z,-5.40
2019-01-19T22:45:21.861Z,-5.40
2019-01-19T22:47:52.314Z,-5.50
2019-01-19T22:50:22.809Z,-5.50
2019-01-19T22:52:53.390Z,-5.60
2019-01-19T22:55:23.928Z,-5.40
2019-01-19T22:57:54.517Z,-5.10
2019-01-19T23:00:59.512Z,-5.00
2019-01-19T23:03:35.606Z,-5.20
2019-01-19T23:06:06.735Z,-5.30
2019-01-19T23:08:37.338Z,-5.50
2019-01-19T23:11:08.888Z,-5.70
2019-01-19T23:13:39.451Z,-5.80
2019-01-19T23:16:10.108Z,-6.00
2019-01-19T23:18:40.643Z,-5.90
2019-01-19T23:21:11.156Z,-5.90
2019-01-19T23:23:42.694Z,-6.00
2019-01-19T23:26:13.296Z,-6.10
2019-01-19T23:28:43.758Z,-6.20
2019-01-19T23:31:14.179Z,-6.20
2019-01-19T23:33:44.923Z,-6.10
2019-01-19T23:36:15.488Z,-6.10
2019-01-19T23:38:46.215Z,-6.10
2019-01-19T23:41:18.434Z,-6.10
2019-01-19T23:43:48.842Z,-6.10
2019-01-19T23:46:19.407Z,-6.00
2019-01-19T23:48:49.997Z,-5.80
2019-01-19T23:51:20.604Z,-5.70
2019-01-19T23:53:51.436Z,-5.80
2019-01-19T23:56:22.094Z,-5.90
2019-01-19T23:58:52.582Z,-5.90
